Time;durP1;ratioP1;P1;durP2;ratioP2;P2;SDS_P1;SDS_P2;PMS_P1;PMS_P2;Temp;Humidity;BMP_temperature;BMP_pressure;BME280_temperature;BME280_humidity;BME280_pressure;Samples;Min_cycle;Max_cycle;Signal;HPM_P1;HPM_P2
2023/10/26 00:04:18;;;;;;;33.47;14.70;;;;;;;18.68;100.00;98674.63;31384408;28;20147;-77
2023/10/26 00:19:20;;;;;;;25.63;14.47;;;;;;;18.77;100.00;98659.84;31376269;28;20041;-78
2023/10/26 00:34:22;;;;;;;29.77;14.47;;;;;;;18.76;100.00;98647.34;31380104;28;20045;-77
2023/10/26 00:49:25;;;;;;;26.57;13.03;;;;;;;18.85;100.00;98641.53;31378054;28;20513;-78
2023/10/26 01:04:27;;;;;;;24.20;13.63;;;;;;;18.72;100.00;98645.59;31403361;28;20566;-77
2023/10/26 01:19:43;;;;;;;25.33;15.07;;;;;;;19.03;100.00;98657.41;31397306;28;20131;-76
2023/10/26 01:34:48;;;;;;;30.77;13.90;;;;;;;18.84;100.00;98643.56;31421690;28;20060;-78
2023/10/26 01:49:50;;;;;;;28.00;14.10;;;;;;;19.04;100.00;98642.41;31429322;28;20512;-76
2023/10/26 02:04:54;;;;;;;27.93;13.97;;;;;;;19.08;100.00;98637.38;31431495;28;20102;-77
2023/10/26 02:19:56;;;;;;;28.97;13.03;;;;;;;19.01;100.00;98621.44;31401759;28;20083;-77
2023/10/26 02:34:59;;;;;;;26.20;13.63;;;;;;;18.86;100.00;98634.78;31399542;28;20788;-78
2023/10/26 02:50:01;;;;;;;30.13;14.17;;;;;;;18.82;100.00;98637.06;31405953;28;20518;-77
2023/10/26 03:05:03;;;;;;;32.53;14.73;;;;;;;18.86;100.00;98626.53;31401524;28;20057;-77
2023/10/26 03:20:06;;;;;;;28.83;14.93;;;;;;;18.98;100.00;98628.69;31391827;28;20410;-77
2023/10/26 03:35:08;;;;;;;28.57;15.60;;;;;;;18.99;100.00;98618.44;31375173;28;20045;-77
2023/10/26 03:50:10;;;;;;;31.13;15.63;;;;;;;19.00;100.00;98614.44;31398597;28;20053;-76
2023/10/26 04:05:13;;;;;;;35.50;16.93;;;;;;;19.10;100.00;98612.88;31408929;28;20048;-77
2023/10/26 04:20:15;;;;;;;37.63;18.13;;;;;;;19.07;100.00;98638.66;31384808;28;20083;-77
2023/10/26 04:35:19;;;;;;;33.23;17.03;;;;;;;19.09;100.00;98638.88;31369199;28;20084;-78
2023/10/26 04:50:22;;;;;;;38.77;16.50;;;;;;;19.23;100.00;98635.00;31370455;28;20053;-75
2023/10/26 05:05:24;;;;;;;30.03;15.87;;;;;;;19.38;100.00;98645.63;31383413;28;20040;-76
2023/10/26 05:20:30;;;;;;;25.80;15.80;;;;;;;19.51;100.00;98650.56;31369222;28;21494;-76
2023/10/26 05:35:32;;;;;;;28.83;15.93;;;;;;;19.34;100.00;98676.19;31362126;28;20131;-77
2023/10/26 05:50:34;;;;;;;39.63;17.23;;;;;;;19.34;100.00;98687.22;31406047;28;20059;-78
2023/10/26 06:05:36;;;;;;;37.17;18.77;;;;;;;19.59;100.00;98668.03;31411562;28;20063;-77
2023/10/26 06:20:39;;;;;;;36.00;17.77;;;;;;;19.98;100.00;98660.13;31373033;28;20102;-77
2023/10/26 06:35:41;;;;;;;35.50;17.27;;;;;;;20.31;100.00;98692.03;31407102;28;20598;-77
2023/10/26 06:50:44;;;;;;;38.90;18.90;;;;;;;20.44;100.00;98732.78;31405928;28;20076;-76
2023/10/26 07:05:47;;;;;;;50.07;20.87;;;;;;;20.69;100.00;98731.47;31384887;28;20134;-75
2023/10/26 07:20:50;;;;;;;48.85;22.17;;;;;;;20.91;100.00;98691.06;31387026;28;20045;-77
2023/10/26 07:35:58;;;;;;;44.22;19.40;;;;;;;21.33;100.00;98681.94;31383574;28;20060;-77
2023/10/26 07:51:00;;;;;;;35.40;16.95;;;;;;;21.35;100.00;98733.84;31373570;28;20156;-77
2023/10/26 08:06:02;;;;;;;33.85;18.17;;;;;;;21.55;100.00;98727.00;31370369;28;20052;-82
2023/10/26 08:21:05;;;;;;;48.63;24.27;;;;;;;21.72;100.00;98744.06;31367758;28;20560;-77
2023/10/26 08:36:07;;;;;;;46.47;20.35;;;;;;;21.84;100.00;98748.13;31337959;28;20072;-75
2023/10/26 08:51:10;;;;;;;44.85;22.65;;;;;;;21.74;100.00;98736.72;31373279;28;20457;-79
2023/10/26 09:06:13;;;;;;;42.30;19.90;;;;;;;21.95;100.00;98739.66;31368169;28;20045;-81
2023/10/26 09:21:19;;;;;;;53.10;22.42;;;;;;;21.93;100.00;98744.97;31364403;28;20456;-76
2023/10/26 09:36:21;;;;;;;56.22;22.48;;;;;;;22.19;100.00;98757.34;31425854;28;20048;-76
2023/10/26 09:51:25;;;;;;;48.55;23.20;;;;;;;22.12;100.00;98758.72;31404355;28;20047;-81
2023/10/26 10:06:49;;;;;;;54.23;21.77;;;;;;;22.53;100.00;98735.34;31381757;28;20136;-77
2023/10/26 10:21:51;;;;;;;52.63;22.23;;;;;;;22.20;100.00;98764.38;31417740;28;20485;-77
2023/10/26 10:37:11;;;;;;;64.45;25.10;;;;;;;22.16;100.00;98786.03;31377078;28;20048;-78
2023/10/26 10:52:15;;;;;;;73.85;27.80;;;;;;;21.68;100.00;98798.84;31397834;28;20064;-78
2023/10/26 11:07:26;;;;;;;90.75;32.17;;;;;;;21.84;100.00;98799.84;31371527;28;20041;-80
2023/10/26 11:22:29;;;;;;;68.32;29.10;;;;;;;22.42;100.00;98795.13;31387347;28;20132;-77
2023/10/26 11:37:32;;;;;;;40.75;20.60;;;;;;;22.25;100.00;98849.19;31416803;28;20064;-79
2023/10/26 11:52:34;;;;;;;37.38;17.08;;;;;;;22.38;100.00;98843.69;31371809;28;20052;-78
2023/10/26 12:07:36;;;;;;;37.88;18.70;;;;;;;22.79;100.00;98843.22;31355539;28;20136;-85
2023/10/26 12:22:39;;;;;;;37.25;19.20;;;;;;;23.36;100.00;98869.25;31345131;28;20135;-81
2023/10/26 12:37:41;;;;;;;36.97;19.70;;;;;;;23.07;100.00;98887.69;31388528;28;20048;-81
2023/10/26 12:52:43;;;;;;;34.97;18.75;;;;;;;23.26;100.00;98915.25;31365876;28;20092;-78
2023/10/26 13:07:45;;;;;;;36.13;17.92;;;;;;;23.08;100.00;98900.25;31443860;28;20072;-87
2023/10/26 13:22:49;;;;;;;31.35;16.88;;;;;;;23.15;100.00;98896.09;31447910;28;20428;-82
2023/10/26 13:37:51;;;;;;;29.70;17.23;;;;;;;22.84;100.00;98919.84;31445661;28;20041;-88
2023/10/26 13:52:53;;;;;;;32.72;18.63;;;;;;;22.65;100.00;98939.25;31447431;28;20084;-91
2023/10/26 14:07:55;;;;;;;25.80;15.63;;;;;;;22.28;100.00;98953.19;31446102;28;20146;-81
2023/10/26 14:22:57;;;;;;;18.67;11.25;;;;;;;21.87;100.00;98956.28;31409062;28;20091;-75
2023/10/26 14:38:03;;;;;;;17.17;10.20;;;;;;;21.58;100.00;98949.63;31439507;28;20098;-85
2023/10/26 14:53:05;;;;;;;16.65;10.90;;;;;;;21.24;100.00;98969.34;31400149;28;20063;-77
2023/10/26 15:08:09;;;;;;;19.73;12.35;;;;;;;21.05;100.00;98971.25;31396595;28;20130;-77
2023/10/26 15:23:11;;;;;;;21.83;12.40;;;;;;;20.98;100.00;98977.38;31439383;28;20053;-79
2023/10/26 15:38:13;;;;;;;32.15;15.38;;;;;;;20.72;100.00;98992.38;31403264;28;20510;-83
2023/10/26 15:53:15;;;;;;;28.40;16.63;;;;;;;20.33;100.00;99013.94;31405217;28;20367;-76
2023/10/26 16:08:17;;;;;;;33.33;16.37;;;;;;;20.26;100.00;99003.50;31392118;28;20498;-78
2023/10/26 16:23:19;;;;;;;24.93;14.77;;;;;;;20.52;100.00;99014.13;31397501;28;20041;-78
2023/10/26 16:38:22;;;;;;;22.37;12.77;;;;;;;20.41;100.00;99020.44;31398963;28;20095;-78
2023/10/26 16:53:25;;;;;;;18.27;10.77;;;;;;;20.64;100.00;99010.00;30877326;28;1500119;-76
2023/10/26 17:08:32;;;;;;;19.87;10.10;;;;;;;20.45;100.00;98998.88;31024895;28;20057;-90
2023/10/26 17:23:37;;;;;;;18.27;11.97;;;;;;;20.49;100.00;99015.88;31035518;28;20054;-82
2023/10/26 17:38:39;;;;;;;20.23;11.17;;;;;;;20.41;100.00;99014.94;30988584;28;20129;-78
2023/10/26 17:53:42;;;;;;;22.70;10.77;;;;;;;20.39;100.00;99006.41;31001195;28;20047;-81
2023/10/26 18:08:44;;;;;;;16.13;9.73;;;;;;;20.74;100.00;99011.94;31005789;28;20046;-81
2023/10/26 18:23:49;;;;;;;30.37;21.70;;;;;;;20.79;100.00;99029.66;31000829;28;20061;-82
2023/10/26 18:38:51;;;;;;;14.33;9.13;;;;;;;20.92;100.00;99040.09;30997244;28;20476;-79
2023/10/26 18:53:55;;;;;;;15.32;8.93;;;;;;;20.89;100.00;99035.63;30996976;28;20050;-80
2023/10/26 19:08:58;;;;;;;24.37;12.07;;;;;;;20.56;100.00;99042.88;31000394;28;20054;-83
2023/10/26 19:24:00;;;;;;;30.80;15.03;;;;;;;20.56;100.00;99029.09;31002528;28;20050;-83
2023/10/26 19:39:02;;;;;;;38.97;18.47;;;;;;;20.03;100.00;99036.69;31001344;28;20478;-83
2023/10/26 19:54:05;;;;;;;42.60;21.90;;;;;;;19.90;100.00;99006.19;30996704;28;20061;-79
2023/10/26 20:09:34;;;;;;;40.13;20.37;;;;;;;19.81;100.00;98978.19;30992040;28;20057;-82
2023/10/26 20:24:39;;;;;;;32.40;20.27;;;;;;;19.64;100.00;98956.25;30993791;28;20050;-83
2023/10/26 20:39:42;;;;;;;33.00;18.15;;;;;;;19.58;100.00;98934.25;30985455;28;20042;-79
2023/10/26 20:54:45;;;;;;;34.20;17.47;;;;;;;19.43;100.00;98942.78;30980442;28;20053;-76
2023/10/26 21:09:47;;;;;;;31.73;18.20;;;;;;;19.57;100.00;98938.28;30986446;28;20042;-78
2023/10/26 21:24:50;;;;;;;39.40;19.57;;;;;;;19.43;100.00;98914.53;30989069;28;20145;-77
2023/10/26 21:39:52;;;;;;;36.60;19.10;;;;;;;19.42;100.00;98916.53;31005739;28;20058;-77
2023/10/26 21:54:57;;;;;;;39.60;18.33;;;;;;;19.28;100.00;98898.34;31000680;28;20064;-77
2023/10/26 22:10:00;;;;;;;35.57;17.40;;;;;;;19.12;100.00;98896.41;31011792;28;20100;-77
2023/10/26 22:25:02;;;;;;;34.07;16.10;;;;;;;19.25;100.00;98904.84;30993512;28;20400;-76
2023/10/26 22:40:06;;;;;;;24.97;14.47;;;;;;;19.19;100.00;98865.59;30993177;28;20054;-79
2023/10/26 22:55:08;;;;;;;29.63;14.90;;;;;;;19.31;100.00;98842.31;30981745;28;20412;-77
2023/10/26 23:10:10;;;;;;;25.10;12.83;;;;;;;19.12;100.00;98833.16;30967015;28;20093;-77
2023/10/26 23:25:13;;;;;;;20.03;10.30;;;;;;;19.20;100.00;98789.31;30973109;28;20475;-77
2023/10/26 23:40:15;;;;;;;20.03;9.57;;;;;;;19.35;100.00;98779.50;30972118;28;20054;-77
2023/10/26 23:55:17;;;;;;;18.60;8.70;;;;;;;19.57;100.00;98788.88;30960158;28;20062;-76
